Marchicora — V2OQ7 — position and weather

sailwx.info

Track history (hours):
 
Tides and Currents Weather Stations Pressure Air Temp Water Temp Dewpoint Dewpoint Depression Visibility Wind Speed Wind Dir Waves Ship Positions

Marchicora

Last reported at 2017-Aug-16 14:51 UTC. Time now 2017-Aug-16 19:49 UTC.
Position N 65°33' E 022°15'.

Length 153 m; draft 10.3 m.

Type: Cargo ship. MMSI: 304653000.

Date/timePositionNaut miles runAvg speedWind from/ knotsBaromVisibWave heightAir tempDewpointWater temp
2017-Aug-16 14:51N 65°33' E 022°15'0 0.0
2017-Aug-16 14:28N 65°33' E 022°15'0 0.0
2017-Aug-16 13:55N 65°33' E 022°15'0 0.0
2017-Aug-16 13:29N 65°33' E 022°15'0 0.0
2017-Aug-16 10:39N 65°33' E 022°15'0 0.0
2017-Aug-16 06:57N 65°33' E 022°15'0 0.0
2017-Aug-16 06:29N 65°33' E 022°15'0 0.0
2017-Aug-16 05:49N 65°33' E 022°15'0 0.0
2017-Aug-16 05:28N 65°33' E 022°15'0 0.0
2017-Aug-16 05:00N 65°33' E 022°15'0 0.0
2017-Aug-16 04:27N 65°33' E 022°15'0 0.0
2017-Aug-16 03:57N 65°33' E 022°15'0 0.0
2017-Aug-16 03:18N 65°33' E 022°15'0 0.0
2017-Aug-16 03:00N 65°33' E 022°15'0 0.0
2017-Aug-16 02:29N 65°33' E 022°15'0 0.0
2017-Aug-16 01:59N 65°33' E 022°15'0 0.0
2017-Aug-16 01:20N 65°33' E 022°15'0 0.0
2017-Aug-15 21:32N 65°33' E 022°15'0 0.0
2017-Aug-15 21:17N 65°33' E 022°15'0 0.0
2017-Aug-15 19:33N 65°33' E 022°15'0 0.0
2017-Aug-15 19:08N 65°33' E 022°15'0 0.1
2017-Aug-15 19:00N 65°33' E 022°15'0 0.0
2017-Aug-15 18:20N 65°33' E 022°15'0 0.0
2017-Aug-15 17:05N 65°33' E 022°15'0 0.0
2017-Aug-15 16:59N 65°33' E 022°15'0 0.0
2017-Aug-15 16:26N 65°33' E 022°15'0 0.0
2017-Aug-15 15:59N 65°33' E 022°15'0 0.0
2017-Aug-15 15:11N 65°33' E 022°15'0 0.0
2017-Aug-15 14:59N 65°33' E 022°15'0 0.0
2017-Aug-15 14:23N 65°33' E 022°15'0 0.0
2017-Aug-15 13:51N 65°33' E 022°15'0 0.0
2017-Aug-15 13:30N 65°33' E 022°15'0 0.0
2017-Aug-15 12:48N 65°33' E 022°15'0 0.0
2017-Aug-15 12:30N 65°33' E 022°15'0 0.0
2017-Aug-15 11:54N 65°33' E 022°15'0 0.0
2017-Aug-15 11:30N 65°33' E 022°15'0 0.0
2017-Aug-15 11:00N 65°33' E 022°15'2 0.0
2017-Aug-13 11:31N 65°32' E 022°20'0 5.7
2017-Aug-13 11:28N 65°32' E 022°20'4 8.1
2017-Aug-13 10:56N 65°29' E 022°27'611.3
2017-Aug-13 10:23N 65°24' E 022°38'612.3
2017-Aug-13 09:55N 65°20' E 022°47'1 3.0
2017-Aug-13 09:29N 65°19' E 022°49'0 0.3
2017-Aug-13 09:00N 65°19' E 022°48'0 0.1
2017-Aug-13 08:06N 65°19' E 022°48'0 5.4
2017-Aug-13 08:00N 65°18' E 022°48'510.8
2017-Aug-13 07:30N 65°13' E 022°48'612.3
2017-Aug-13 07:00N 65°07' E 022°49'612.3
2017-Aug-13 06:30N 65°00' E 022°50'612.3
2017-Aug-13 06:00N 64°54' E 022°47'612.5
2017-Aug-13 05:31N 64°48' E 022°43'612.6
2017-Aug-13 05:00N 64°42' E 022°39'612.8
2017-Aug-13 04:30N 64°36' E 022°35'612.9
2017-Aug-13 04:01N 64°31' E 022°28'713.0
2017-Aug-13 03:30N 64°25' E 022°20'613.0
2017-Aug-13 03:01N 64°20' E 022°11'713.0
2017-Aug-13 02:31N 64°14' E 022°03'612.9
2017-Aug-13 02:00N 64°09' E 021°55'612.9
2017-Aug-13 01:30N 64°03' E 021°47'612.8
2017-Aug-13 01:00N 63°58' E 021°39'612.7
2017-Aug-13 00:30N 63°53' E 021°31'612.9
2017-Aug-13 00:00N 63°47' E 021°23'612.9
2017-Aug-12 23:31N 63°42' E 021°15'612.7
2017-Aug-12 23:01N 63°37' E 021°07'611.6
2017-Aug-12 22:31N 63°34' E 020°56'611.8
2017-Aug-12 22:00N 63°32' E 020°44'612.6
2017-Aug-12 21:31N 63°26' E 020°36'713.0
2017-Aug-12 21:00N 63°21' E 020°28'713.0
2017-Aug-12 20:30N 63°15' E 020°20'613.0
2017-Aug-12 20:01N 63°09' E 020°17'612.8
2017-Aug-12 19:31N 63°03' E 020°14'612.7
2017-Aug-12 19:00N 62°57' E 020°11'612.7
2017-Aug-12 18:30N 62°50' E 020°08'612.8
2017-Aug-12 18:01N 62°44' E 020°05'613.0
2017-Aug-12 17:31N 62°38' E 020°01'612.9
2017-Aug-12 17:00N 62°32' E 019°58'612.9
2017-Aug-12 16:30N 62°25' E 019°56'612.7
2017-Aug-12 16:00N 62°19' E 019°53'612.5
2017-Aug-12 15:30N 62°13' E 019°51'612.4
2017-Aug-12 15:00N 62°07' E 019°48'612.5
2017-Aug-12 14:31N 62°01' E 019°45'612.7
2017-Aug-12 14:00N 61°54' E 019°42'612.8
2017-Aug-12 13:30N 61°48' E 019°39'612.8
2017-Aug-12 13:01N 61°42' E 019°36'612.9
2017-Aug-12 12:30N 61°36' E 019°32'713.0
2017-Aug-12 12:00N 61°29' E 019°29'713.1
2017-Aug-12 11:31N 61°23' E 019°26'713.1
2017-Aug-12 11:00N 61°17' E 019°23'713.3
2017-Aug-12 10:30N 61°10' E 019°21'713.3
2017-Aug-12 10:00N 61°04' E 019°18'713.3
2017-Aug-12 09:30N 60°57' E 019°15'713.1
2017-Aug-12 09:00N 60°51' E 019°12'713.1
2017-Aug-12 08:30N 60°44' E 019°09'713.1
2017-Aug-12 08:01N 60°38' E 019°06'612.9
2017-Aug-12 07:30N 60°31' E 019°03'612.8
2017-Aug-12 07:00N 60°25' E 019°02'612.8
2017-Aug-12 06:30N 60°19' E 019°01'612.7
2017-Aug-12 06:00N 60°13' E 019°05'612.8
2017-Aug-12 05:30N 60°08' E 019°13'612.8
2017-Aug-12 05:00N 60°03' E 019°21'612.9
2017-Aug-12 04:30N 59°58' E 019°29'612.8
2017-Aug-12 04:00N 59°53' E 019°37'612.8
2017-Aug-12 03:30N 59°48' E 019°45'612.7
2017-Aug-12 03:00N 59°43' E 019°54'612.7
2017-Aug-12 02:30N 59°39' E 020°03'612.1
2017-Aug-12 02:00N 59°34' E 020°10'612.3
2017-Aug-12 01:30N 59°28' E 020°07'612.6
2017-Aug-12 01:00N 59°22' E 020°02'612.4
2017-Aug-12 00:30N 59°17' E 019°55'612.7
2017-Aug-12 00:00N 59°12' E 019°48'612.7
2017-Aug-11 23:30N 59°07' E 019°42'612.8
2017-Aug-11 23:00N 59°01' E 019°35'612.8
2017-Aug-11 22:30N 58°56' E 019°28'612.9
2017-Aug-11 22:00N 58°50' E 019°22'613.0
2017-Aug-11 21:30N 58°45' E 019°16'612.9
2017-Aug-11 21:00N 58°39' E 019°09'713.3
2017-Aug-11 20:30N 58°34' E 019°02'612.5
2017-Aug-11 20:00N 58°28' E 018°55'713.7
2017-Aug-11 19:30N 58°22' E 018°49'713.3
2017-Aug-11 18:59N 58°16' E 018°42'612.1
2017-Aug-11 18:30N 58°11' E 018°37'713.9
2017-Aug-11 18:00N 58°05' E 018°30'612.2
2017-Aug-11 17:30N 58°00' E 018°25'612.0
2017-Aug-11 16:59N 57°55' E 018°19'13412.6
2017-Aug-11 06:19N 55°56' E 016°23'1512.8
2017-Aug-11 05:10N 55°49' E 016°00'212.6
2017-Aug-11 05:00N 55°48' E 015°57'612.7
2017-Aug-11 04:30N 55°45' E 015°48'612.8
2017-Aug-11 04:00N 55°41' E 015°38'612.8
2017-Aug-11 03:30N 55°38' E 015°28'612.6
2017-Aug-11 03:00N 55°36' E 015°18'612.5
2017-Aug-11 02:30N 55°33' E 015°08'612.4
2017-Aug-11 02:00N 55°30' E 014°59'612.5
2017-Aug-11 01:30N 55°27' E 014°49'612.8
2017-Aug-11 01:00N 55°23' E 014°40'612.7
2017-Aug-11 00:30N 55°18' E 014°33'612.5
2017-Aug-11 00:00N 55°13' E 014°26'612.4
2017-Aug-10 23:30N 55°08' E 014°19'612.6
2017-Aug-10 23:00N 55°04' E 014°12'612.1
2017-Aug-10 22:30N 55°00' E 014°03'612.7
2017-Aug-10 22:00N 54°58' E 013°53'612.9
2017-Aug-10 21:30N 54°56' E 013°42'612.9
2017-Aug-10 21:00N 54°54' E 013°31'712.8
2017-Aug-10 20:25N 54°52' E 013°19'712.6
2017-Aug-10 19:51N 54°49' E 013°07'3212.2
2017-Aug-10 17:15N 54°35' E 012°19'312.2
2017-Aug-10 17:00N 54°32' E 012°17'612.0
2017-Aug-10 16:29N 54°26' E 012°13'1311.7
2017-Aug-10 15:22N 54°25' E 011°51'511.9
2017-Aug-10 14:56N 54°26' E 011°42'512.5
2017-Aug-10 14:30N 54°29' E 011°34'612.4
2017-Aug-10 14:00N 54°31' E 011°24'612.1
2017-Aug-10 13:30N 54°34' E 011°15'612.0
2017-Aug-10 13:00N 54°37' E 011°06'612.0
2017-Aug-10 12:30N 54°40' E 010°57'510.5
2017-Aug-10 12:00N 54°44' E 010°51'611.5
2017-Aug-10 11:30N 54°50' E 010°52'510.6
2017-Aug-10 11:00N 54°55' E 010°54'510.8
2017-Aug-10 10:30N 54°59' E 011°00'510.7
2017-Aug-10 10:00N 55°04' E 011°02'510.9
2017-Aug-10 09:30N 55°10' E 011°03'510.7
2017-Aug-10 09:00N 55°15' E 011°05'611.6
2017-Aug-10 08:30N 55°21' E 011°02'611.3
2017-Aug-10 08:00N 55°26' E 010°58'612.2
2017-Aug-10 07:29N 55°31' E 010°52'611.3
2017-Aug-10 06:59N 55°36' E 010°48'611.0
2017-Aug-10 06:28N 55°42' E 010°47'511.3
2017-Aug-10 06:00N 55°47' E 010°48'510.3
2017-Aug-10 05:29N 55°52' E 010°52'510.9
2017-Aug-10 05:00N 55°56' E 010°58'611.1
2017-Aug-10 04:28N 56°01' E 011°03'610.9
2017-Aug-10 03:57N 56°06' E 011°08'511.0
2017-Aug-10 03:29N 56°10' E 011°15'5910.2
2017-Aug-09 21:44N 57°07' E 011°37'510.9
2017-Aug-09 21:18N 57°11' E 011°35'311.1
2017-Aug-09 21:00N 57°15' E 011°32'511.0
2017-Aug-09 20:30N 57°20' E 011°29'611.2
2017-Aug-09 20:00N 57°25' E 011°26'510.8
2017-Aug-09 19:30N 57°29' E 011°19'612.1
2017-Aug-09 19:00N 57°32' E 011°09'612.1
2017-Aug-09 18:30N 57°35' E 010°59'612.0
2017-Aug-09 18:00N 57°37' E 010°49'611.9
2017-Aug-09 17:29N 57°40' E 010°39'2 3.4
2017-Aug-09 16:59N 57°41' E 010°36'0 0.1
2017-Aug-09 16:29N 57°41' E 010°36'0 0.0
2017-Aug-09 15:59N 57°41' E 010°36'0 0.0
2017-Aug-09 15:29N 57°41' E 010°36'0 0.1
2017-Aug-09 14:56N 57°41' E 010°36'0 0.1
2017-Aug-09 13:54N 57°41' E 010°36'3 7.5
2017-Aug-09 13:30N 57°43' E 010°41'5 9.3
2017-Aug-09 13:01N 57°47' E 010°45'610.9
2017-Aug-09 12:30N 57°48' E 010°35'611.3
2017-Aug-09 12:00N 57°48' E 010°24'811.8
2017-Aug-09 11:22N 57°48' E 010°10'20910.4
2017-Aug-08 15:16N 55°14' E 005°53'3611.8
2017-Aug-08 12:12N 54°43' E 005°22'311.7
2017-Aug-08 11:58N 54°41' E 005°20'2211.9
2017-Aug-08 10:05N 54°21' E 005°01'112.1
2017-Aug-08 10:00N 54°20' E 005°00'5812.2
2017-Aug-08 05:17N 53°36' E 003°58'413.0
2017-Aug-08 04:57N 53°33' E 003°52'612.9
2017-Aug-08 04:30N 53°29' E 003°44'2413.4
2017-Aug-08 02:43N 53°08' E 003°28'413.5
2017-Aug-08 02:25N 53°04' E 003°26'913.5
2017-Aug-08 01:46N 52°56' E 003°21'413.3
2017-Aug-08 01:29N 52°52' E 003°19'613.1
2017-Aug-08 01:00N 52°46' E 003°17'713.0
2017-Aug-08 00:29N 52°39' E 003°16'612.5
2017-Aug-08 00:01N 52°33' E 003°14'612.3
2017-Aug-07 23:30N 52°27' E 003°13'611.9
2017-Aug-07 23:01N 52°21' E 003°11'611.8
2017-Aug-07 22:31N 52°15' E 003°11'611.3
2017-Aug-07 22:00N 52°10' E 003°10'611.1
2017-Aug-07 21:30N 52°05' E 003°05'511.0
2017-Aug-07 21:01N 52°01' E 002°59'510.9
2017-Aug-07 20:30N 51°57' E 002°53'611.0
2017-Aug-07 19:58N 51°53' E 002°46'511.0
2017-Aug-07 19:30N 51°49' E 002°41'611.2
2017-Aug-07 19:01N 51°45' E 002°35'611.5
2017-Aug-07 18:31N 51°41' E 002°29'611.8
2017-Aug-07 18:01N 51°36' E 002°23'612.3
2017-Aug-07 17:31N 51°31' E 002°17'612.5
2017-Aug-07 17:01N 51°26' E 002°12'612.8
2017-Aug-07 16:30N 51°20' E 002°09'612.8
2017-Aug-07 16:01N 51°14' E 002°05'713.3
2017-Aug-07 15:31N 51°11' E 001°55'713.4
2017-Aug-07 15:01N 51°07' E 001°46'714.0
2017-Aug-07 14:30N 51°02' E 001°39'714.4
2017-Aug-07 14:00N 50°57' E 001°30'6013.0
2017-Aug-07 09:22N 50°22' E 000°13'514.5
2017-Aug-07 09:00N 50°20' E 000°05'714.8
2017-Aug-07 08:30N 50°19' W 000°06'815.0
2017-Aug-07 08:00N 50°17' W 000°17'1715.2
2017-Aug-07 06:55N 50°12' W 000°42'615.0
2017-Aug-07 06:31N 50°10' W 000°51'714.6
2017-Aug-07 06:00N 50°08' W 001°02'714.0
2017-Aug-07 05:29N 50°07' W 001°14'613.5
2017-Aug-07 05:00N 50°06' W 001°23'612.8
2017-Aug-07 04:30N 50°04' W 001°33'612.0
2017-Aug-07 04:00N 50°02' W 001°42'611.4
2017-Aug-07 03:30N 50°01' W 001°51'510.7
2017-Aug-07 03:00N 49°59' W 001°59'510.0
2017-Aug-07 02:30N 49°58' W 002°06'5 9.9
2017-Aug-07 02:00N 49°56' W 002°13'2310.3
2017-Aug-06 23:49N 49°50' W 002°47'311.2
2017-Aug-06 23:30N 49°49' W 002°52'611.6
2017-Aug-06 23:00N 49°45' W 002°59'611.9
2017-Aug-06 22:30N 49°42' W 003°07'612.2
2017-Aug-06 22:00N 49°40' W 003°16'612.2
2017-Aug-06 21:30N 49°37' W 003°24'612.3
2017-Aug-06 21:01N 49°34' W 003°32'712.4
2017-Aug-06 20:26N 49°31' W 003°42'612.6
2017-Aug-06 19:59N 49°28' W 003°49'712.8
2017-Aug-06 19:29N 49°25' W 003°58'612.9
2017-Aug-06 18:59N 49°21' W 004°07'813.2
2017-Aug-06 18:23N 49°17' W 004°17'613.3
2017-Aug-06 17:58N 49°15' W 004°24'1513.7
2017-Aug-06 16:50N 49°07' W 004°45'514.0
2017-Aug-06 16:29N 49°04' W 004°51'914.1
2017-Aug-06 15:53N 49°00' W 005°03'514.1
2017-Aug-06 15:30N 48°58' W 005°10'714.3
2017-Aug-06 15:00N 48°54' W 005°19'  
Track history (hours):
 
Tides and Currents Weather Stations Pressure Air Temp Water Temp Dewpoint Dewpoint Depression Visibility Wind Speed Wind Dir Waves Ship Positions

Marchicora

Last reported at 2017-Aug-16 14:51 UTC. Time now 2017-Aug-16 19:49 UTC.
Position N 65°33' E 022°15'.

Length 153 m; draft 10.3 m.

Type: Cargo ship. MMSI: 304653000.

Date/timePositionNaut miles runAvg speedWind from/ knotsBaromVisibWave heightAir tempDewpointWater temp
2017-Aug-16 14:51N 65°33' E 022°15'0 0.0
2017-Aug-16 14:28N 65°33' E 022°15'0 0.0
2017-Aug-16 13:55N 65°33' E 022°15'0 0.0
2017-Aug-16 13:29N 65°33' E 022°15'0 0.0
2017-Aug-16 10:39N 65°33' E 022°15'0 0.0
2017-Aug-16 06:57N 65°33' E 022°15'0 0.0
2017-Aug-16 06:29N 65°33' E 022°15'0 0.0
2017-Aug-16 05:49N 65°33' E 022°15'0 0.0
2017-Aug-16 05:28N 65°33' E 022°15'0 0.0
2017-Aug-16 05:00N 65°33' E 022°15'0 0.0
2017-Aug-16 04:27N 65°33' E 022°15'0 0.0
2017-Aug-16 03:57N 65°33' E 022°15'0 0.0
2017-Aug-16 03:18N 65°33' E 022°15'0 0.0
2017-Aug-16 03:00N 65°33' E 022°15'0 0.0
2017-Aug-16 02:29N 65°33' E 022°15'0 0.0
2017-Aug-16 01:59N 65°33' E 022°15'0 0.0
2017-Aug-16 01:20N 65°33' E 022°15'0 0.0
2017-Aug-15 21:32N 65°33' E 022°15'0 0.0
2017-Aug-15 21:17N 65°33' E 022°15'0 0.0
2017-Aug-15 19:33N 65°33' E 022°15'0 0.0
2017-Aug-15 19:08N 65°33' E 022°15'0 0.1
2017-Aug-15 19:00N 65°33' E 022°15'0 0.0
2017-Aug-15 18:20N 65°33' E 022°15'0 0.0
2017-Aug-15 17:05N 65°33' E 022°15'0 0.0
2017-Aug-15 16:59N 65°33' E 022°15'0 0.0
2017-Aug-15 16:26N 65°33' E 022°15'0 0.0
2017-Aug-15 15:59N 65°33' E 022°15'0 0.0
2017-Aug-15 15:11N 65°33' E 022°15'0 0.0
2017-Aug-15 14:59N 65°33' E 022°15'0 0.0
2017-Aug-15 14:23N 65°33' E 022°15'0 0.0
2017-Aug-15 13:51N 65°33' E 022°15'0 0.0
2017-Aug-15 13:30N 65°33' E 022°15'0 0.0
2017-Aug-15 12:48N 65°33' E 022°15'0 0.0
2017-Aug-15 12:30N 65°33' E 022°15'0 0.0
2017-Aug-15 11:54N 65°33' E 022°15'0 0.0
2017-Aug-15 11:30N 65°33' E 022°15'0 0.0
2017-Aug-15 11:00N 65°33' E 022°15'2 0.0
2017-Aug-13 11:31N 65°32' E 022°20'0 5.7
2017-Aug-13 11:28N 65°32' E 022°20'4 8.1
2017-Aug-13 10:56N 65°29' E 022°27'611.3
2017-Aug-13 10:23N 65°24' E 022°38'612.3
2017-Aug-13 09:55N 65°20' E 022°47'1 3.0
2017-Aug-13 09:29N 65°19' E 022°49'0 0.3
2017-Aug-13 09:00N 65°19' E 022°48'0 0.1
2017-Aug-13 08:06N 65°19' E 022°48'0 5.4
2017-Aug-13 08:00N 65°18' E 022°48'510.8
2017-Aug-13 07:30N 65°13' E 022°48'612.3
2017-Aug-13 07:00N 65°07' E 022°49'612.3
2017-Aug-13 06:30N 65°00' E 022°50'612.3
2017-Aug-13 06:00N 64°54' E 022°47'612.5
2017-Aug-13 05:31N 64°48' E 022°43'612.6
2017-Aug-13 05:00N 64°42' E 022°39'612.8
2017-Aug-13 04:30N 64°36' E 022°35'612.9
2017-Aug-13 04:01N 64°31' E 022°28'713.0
2017-Aug-13 03:30N 64°25' E 022°20'613.0
2017-Aug-13 03:01N 64°20' E 022°11'713.0
2017-Aug-13 02:31N 64°14' E 022°03'612.9
2017-Aug-13 02:00N 64°09' E 021°55'612.9
2017-Aug-13 01:30N 64°03' E 021°47'612.8
2017-Aug-13 01:00N 63°58' E 021°39'612.7
2017-Aug-13 00:30N 63°53' E 021°31'612.9
2017-Aug-13 00:00N 63°47' E 021°23'612.9
2017-Aug-12 23:31N 63°42' E 021°15'612.7
2017-Aug-12 23:01N 63°37' E 021°07'611.6
2017-Aug-12 22:31N 63°34' E 020°56'611.8
2017-Aug-12 22:00N 63°32' E 020°44'612.6
2017-Aug-12 21:31N 63°26' E 020°36'713.0
2017-Aug-12 21:00N 63°21' E 020°28'713.0
2017-Aug-12 20:30N 63°15' E 020°20'613.0
2017-Aug-12 20:01N 63°09' E 020°17'612.8
2017-Aug-12 19:31N 63°03' E 020°14'612.7
2017-Aug-12 19:00N 62°57' E 020°11'612.7
2017-Aug-12 18:30N 62°50' E 020°08'612.8
2017-Aug-12 18:01N 62°44' E 020°05'613.0
2017-Aug-12 17:31N 62°38' E 020°01'612.9
2017-Aug-12 17:00N 62°32' E 019°58'612.9
2017-Aug-12 16:30N 62°25' E 019°56'612.7
2017-Aug-12 16:00N 62°19' E 019°53'612.5
2017-Aug-12 15:30N 62°13' E 019°51'612.4
2017-Aug-12 15:00N 62°07' E 019°48'612.5
2017-Aug-12 14:31N 62°01' E 019°45'612.7
2017-Aug-12 14:00N 61°54' E 019°42'612.8
2017-Aug-12 13:30N 61°48' E 019°39'612.8
2017-Aug-12 13:01N 61°42' E 019°36'612.9
2017-Aug-12 12:30N 61°36' E 019°32'713.0
2017-Aug-12 12:00N 61°29' E 019°29'713.1
2017-Aug-12 11:31N 61°23' E 019°26'713.1
2017-Aug-12 11:00N 61°17' E 019°23'713.3
2017-Aug-12 10:30N 61°10' E 019°21'713.3
2017-Aug-12 10:00N 61°04' E 019°18'713.3
2017-Aug-12 09:30N 60°57' E 019°15'713.1
2017-Aug-12 09:00N 60°51' E 019°12'713.1
2017-Aug-12 08:30N 60°44' E 019°09'713.1
2017-Aug-12 08:01N 60°38' E 019°06'612.9
2017-Aug-12 07:30N 60°31' E 019°03'612.8
2017-Aug-12 07:00N 60°25' E 019°02'612.8
2017-Aug-12 06:30N 60°19' E 019°01'612.7
2017-Aug-12 06:00N 60°13' E 019°05'612.8
2017-Aug-12 05:30N 60°08' E 019°13'612.8
2017-Aug-12 05:00N 60°03' E 019°21'612.9
2017-Aug-12 04:30N 59°58' E 019°29'612.8
2017-Aug-12 04:00N 59°53' E 019°37'612.8
2017-Aug-12 03:30N 59°48' E 019°45'612.7
2017-Aug-12 03:00N 59°43' E 019°54'612.7
2017-Aug-12 02:30N 59°39' E 020°03'612.1
2017-Aug-12 02:00N 59°34' E 020°10'612.3
2017-Aug-12 01:30N 59°28' E 020°07'612.6
2017-Aug-12 01:00N 59°22' E 020°02'612.4
2017-Aug-12 00:30N 59°17' E 019°55'612.7
2017-Aug-12 00:00N 59°12' E 019°48'612.7
2017-Aug-11 23:30N 59°07' E 019°42'612.8
2017-Aug-11 23:00N 59°01' E 019°35'612.8
2017-Aug-11 22:30N 58°56' E 019°28'612.9
2017-Aug-11 22:00N 58°50' E 019°22'613.0
2017-Aug-11 21:30N 58°45' E 019°16'612.9
2017-Aug-11 21:00N 58°39' E 019°09'713.3
2017-Aug-11 20:30N 58°34' E 019°02'612.5
2017-Aug-11 20:00N 58°28' E 018°55'713.7
2017-Aug-11 19:30N 58°22' E 018°49'713.3
2017-Aug-11 18:59N 58°16' E 018°42'612.1
2017-Aug-11 18:30N 58°11' E 018°37'713.9
2017-Aug-11 18:00N 58°05' E 018°30'612.2
2017-Aug-11 17:30N 58°00' E 018°25'612.0
2017-Aug-11 16:59N 57°55' E 018°19'13412.6
2017-Aug-11 06:19N 55°56' E 016°23'1512.8
2017-Aug-11 05:10N 55°49' E 016°00'212.6
2017-Aug-11 05:00N 55°48' E 015°57'612.7
2017-Aug-11 04:30N 55°45' E 015°48'612.8
2017-Aug-11 04:00N 55°41' E 015°38'612.8
2017-Aug-11 03:30N 55°38' E 015°28'612.6
2017-Aug-11 03:00N 55°36' E 015°18'612.5
2017-Aug-11 02:30N 55°33' E 015°08'612.4
2017-Aug-11 02:00N 55°30' E 014°59'612.5
2017-Aug-11 01:30N 55°27' E 014°49'612.8
2017-Aug-11 01:00N 55°23' E 014°40'612.7
2017-Aug-11 00:30N 55°18' E 014°33'612.5
2017-Aug-11 00:00N 55°13' E 014°26'612.4
2017-Aug-10 23:30N 55°08' E 014°19'612.6
2017-Aug-10 23:00N 55°04' E 014°12'612.1
2017-Aug-10 22:30N 55°00' E 014°03'612.7
2017-Aug-10 22:00N 54°58' E 013°53'612.9
2017-Aug-10 21:30N 54°56' E 013°42'612.9
2017-Aug-10 21:00N 54°54' E 013°31'712.8
2017-Aug-10 20:25N 54°52' E 013°19'712.6
2017-Aug-10 19:51N 54°49' E 013°07'3212.2
2017-Aug-10 17:15N 54°35' E 012°19'312.2
2017-Aug-10 17:00N 54°32' E 012°17'612.0
2017-Aug-10 16:29N 54°26' E 012°13'1311.7
2017-Aug-10 15:22N 54°25' E 011°51'511.9
2017-Aug-10 14:56N 54°26' E 011°42'512.5
2017-Aug-10 14:30N 54°29' E 011°34'612.4
2017-Aug-10 14:00N 54°31' E 011°24'612.1
2017-Aug-10 13:30N 54°34' E 011°15'612.0
2017-Aug-10 13:00N 54°37' E 011°06'612.0
2017-Aug-10 12:30N 54°40' E 010°57'510.5
2017-Aug-10 12:00N 54°44' E 010°51'611.5
2017-Aug-10 11:30N 54°50' E 010°52'510.6
2017-Aug-10 11:00N 54°55' E 010°54'510.8
2017-Aug-10 10:30N 54°59' E 011°00'510.7
2017-Aug-10 10:00N 55°04' E 011°02'510.9
2017-Aug-10 09:30N 55°10' E 011°03'510.7
2017-Aug-10 09:00N 55°15' E 011°05'611.6
2017-Aug-10 08:30N 55°21' E 011°02'611.3
2017-Aug-10 08:00N 55°26' E 010°58'612.2
2017-Aug-10 07:29N 55°31' E 010°52'611.3
2017-Aug-10 06:59N 55°36' E 010°48'611.0
2017-Aug-10 06:28N 55°42' E 010°47'511.3
2017-Aug-10 06:00N 55°47' E 010°48'510.3
2017-Aug-10 05:29N 55°52' E 010°52'510.9
2017-Aug-10 05:00N 55°56' E 010°58'611.1
2017-Aug-10 04:28N 56°01' E 011°03'610.9
2017-Aug-10 03:57N 56°06' E 011°08'511.0
2017-Aug-10 03:29N 56°10' E 011°15'5910.2
2017-Aug-09 21:44N 57°07' E 011°37'510.9
2017-Aug-09 21:18N 57°11' E 011°35'311.1
2017-Aug-09 21:00N 57°15' E 011°32'511.0
2017-Aug-09 20:30N 57°20' E 011°29'611.2
2017-Aug-09 20:00N 57°25' E 011°26'510.8
2017-Aug-09 19:30N 57°29' E 011°19'612.1
2017-Aug-09 19:00N 57°32' E 011°09'612.1
2017-Aug-09 18:30N 57°35' E 010°59'612.0
2017-Aug-09 18:00N 57°37' E 010°49'611.9
2017-Aug-09 17:29N 57°40' E 010°39'2 3.4
2017-Aug-09 16:59N 57°41' E 010°36'0 0.1
2017-Aug-09 16:29N 57°41' E 010°36'0 0.0
2017-Aug-09 15:59N 57°41' E 010°36'0 0.0
2017-Aug-09 15:29N 57°41' E 010°36'0 0.1
2017-Aug-09 14:56N 57°41' E 010°36'0 0.1
2017-Aug-09 13:54N 57°41' E 010°36'3 7.5
2017-Aug-09 13:30N 57°43' E 010°41'5 9.3
2017-Aug-09 13:01N 57°47' E 010°45'610.9
2017-Aug-09 12:30N 57°48' E 010°35'611.3
2017-Aug-09 12:00N 57°48' E 010°24'811.8
2017-Aug-09 11:22N 57°48' E 010°10'20910.4
2017-Aug-08 15:16N 55°14' E 005°53'3611.8
2017-Aug-08 12:12N 54°43' E 005°22'311.7
2017-Aug-08 11:58N 54°41' E 005°20'2211.9
2017-Aug-08 10:05N 54°21' E 005°01'112.1
2017-Aug-08 10:00N 54°20' E 005°00'5812.2
2017-Aug-08 05:17N 53°36' E 003°58'413.0
2017-Aug-08 04:57N 53°33' E 003°52'612.9
2017-Aug-08 04:30N 53°29' E 003°44'2413.4
2017-Aug-08 02:43N 53°08' E 003°28'413.5
2017-Aug-08 02:25N 53°04' E 003°26'913.5
2017-Aug-08 01:46N 52°56' E 003°21'413.3
2017-Aug-08 01:29N 52°52' E 003°19'613.1
2017-Aug-08 01:00N 52°46' E 003°17'713.0
2017-Aug-08 00:29N 52°39' E 003°16'612.5
2017-Aug-08 00:01N 52°33' E 003°14'612.3
2017-Aug-07 23:30N 52°27' E 003°13'611.9
2017-Aug-07 23:01N 52°21' E 003°11'611.8
2017-Aug-07 22:31N 52°15' E 003°11'611.3
2017-Aug-07 22:00N 52°10' E 003°10'611.1
2017-Aug-07 21:30N 52°05' E 003°05'511.0
2017-Aug-07 21:01N 52°01' E 002°59'510.9
2017-Aug-07 20:30N 51°57' E 002°53'611.0
2017-Aug-07 19:58N 51°53' E 002°46'511.0
2017-Aug-07 19:30N 51°49' E 002°41'611.2
2017-Aug-07 19:01N 51°45' E 002°35'611.5
2017-Aug-07 18:31N 51°41' E 002°29'611.8
2017-Aug-07 18:01N 51°36' E 002°23'612.3
2017-Aug-07 17:31N 51°31' E 002°17'612.5
2017-Aug-07 17:01N 51°26' E 002°12'612.8
2017-Aug-07 16:30N 51°20' E 002°09'612.8
2017-Aug-07 16:01N 51°14' E 002°05'713.3
2017-Aug-07 15:31N 51°11' E 001°55'713.4
2017-Aug-07 15:01N 51°07' E 001°46'714.0
2017-Aug-07 14:30N 51°02' E 001°39'714.4
2017-Aug-07 14:00N 50°57' E 001°30'6013.0
2017-Aug-07 09:22N 50°22' E 000°13'514.5
2017-Aug-07 09:00N 50°20' E 000°05'714.8
2017-Aug-07 08:30N 50°19' W 000°06'815.0
2017-Aug-07 08:00N 50°17' W 000°17'1715.2
2017-Aug-07 06:55N 50°12' W 000°42'615.0
2017-Aug-07 06:31N 50°10' W 000°51'714.6
2017-Aug-07 06:00N 50°08' W 001°02'714.0
2017-Aug-07 05:29N 50°07' W 001°14'613.5
2017-Aug-07 05:00N 50°06' W 001°23'612.8
2017-Aug-07 04:30N 50°04' W 001°33'612.0
2017-Aug-07 04:00N 50°02' W 001°42'611.4
2017-Aug-07 03:30N 50°01' W 001°51'510.7
2017-Aug-07 03:00N 49°59' W 001°59'510.0
2017-Aug-07 02:30N 49°58' W 002°06'5 9.9
2017-Aug-07 02:00N 49°56' W 002°13'2310.3
2017-Aug-06 23:49N 49°50' W 002°47'311.2
2017-Aug-06 23:30N 49°49' W 002°52'611.6
2017-Aug-06 23:00N 49°45' W 002°59'611.9
2017-Aug-06 22:30N 49°42' W 003°07'612.2
2017-Aug-06 22:00N 49°40' W 003°16'612.2
2017-Aug-06 21:30N 49°37' W 003°24'612.3
2017-Aug-06 21:01N 49°34' W 003°32'712.4
2017-Aug-06 20:26N 49°31' W 003°42'612.6
2017-Aug-06 19:59N 49°28' W 003°49'712.8
2017-Aug-06 19:29N 49°25' W 003°58'612.9
2017-Aug-06 18:59N 49°21' W 004°07'813.2
2017-Aug-06 18:23N 49°17' W 004°17'613.3
2017-Aug-06 17:58N 49°15' W 004°24'1513.7
2017-Aug-06 16:50N 49°07' W 004°45'514.0
2017-Aug-06 16:29N 49°04' W 004°51'914.1
2017-Aug-06 15:53N 49°00' W 005°03'514.1
2017-Aug-06 15:30N 48°58' W 005°10'714.3
2017-Aug-06 15:00N 48°54' W 005°19'  

Dump ship's entire track history